createdAt,value
2022-10-23T00:01:44.243Z,1.10
2022-10-23T00:04:16.500Z,0.97
2022-10-23T00:06:44.471Z,2.00
2022-10-23T00:09:16.110Z,1.00
2022-10-23T00:11:44.695Z,1.60
2022-10-23T00:14:11.897Z,1.17
2022-10-23T00:16:38.995Z,1.33
2022-10-23T00:19:07.509Z,1.27
2022-10-23T00:21:34.621Z,1.10
2022-10-23T00:24:01.880Z,0.90
2022-10-23T00:26:29.115Z,1.50
2022-10-23T00:28:56.160Z,1.30
2022-10-23T00:31:25.185Z,1.60
2022-10-23T00:33:53.067Z,1.53
2022-10-23T00:36:22.477Z,0.80
2022-10-23T00:38:51.477Z,1.30
2022-10-23T00:41:28.526Z,1.40
2022-10-23T00:44:00.204Z,1.53
2022-10-23T00:46:27.703Z,1.50
2022-10-23T00:48:56.009Z,1.90
2022-10-23T00:51:24.893Z,1.00
2022-10-23T00:54:06.761Z,1.50
2022-10-23T00:56:46.565Z,1.40
2022-10-23T00:59:14.123Z,1.57
2022-10-23T01:01:41.505Z,1.20
2022-10-23T01:04:09.931Z,1.20
2022-10-23T01:06:56.173Z,1.53
2022-10-23T01:09:45.688Z,1.37
2022-10-23T01:12:40.308Z,1.00
2022-10-23T01:15:20.125Z,1.70
2022-10-23T01:18:06.044Z,1.33
2022-10-23T01:20:50.732Z,1.40
2022-10-23T01:24:09.148Z,1.50
2022-10-23T01:27:02.499Z,1.83
2022-10-23T01:30:10.444Z,2.00
2022-10-23T01:33:06.809Z,1.00
2022-10-23T01:35:56.489Z,1.17
2022-10-23T01:38:41.253Z,2.00
2022-10-23T01:42:08.452Z,1.87
2022-10-23T01:44:49.200Z,1.20
2022-10-23T01:49:58.054Z,1.50
2022-10-23T01:52:26.029Z,1.33
2022-10-23T01:54:59.603Z,1.33
2022-10-23T01:57:32.346Z,1.20
2022-10-23T02:00:10.623Z,1.30
2022-10-23T02:02:53.884Z,1.10
2022-10-23T02:05:28.993Z,1.13
2022-10-23T02:08:00.482Z,1.00
2022-10-23T02:10:54.837Z,1.27
2022-10-23T02:13:45.004Z,0.90
2022-10-23T02:16:42.823Z,1.30
2022-10-23T02:19:58.281Z,1.20
2022-10-23T02:22:34.885Z,1.07
2022-10-23T02:25:18.361Z,1.60
2022-10-23T02:27:56.942Z,1.03
2022-10-23T02:30:32.105Z,1.80
2022-10-23T02:33:11.852Z,0.90
2022-10-23T02:35:39.075Z,1.20
2022-10-23T02:38:40.602Z,1.23
2022-10-23T02:41:17.290Z,1.10
2022-10-23T02:44:17.199Z,1.50
2022-10-23T02:47:34.137Z,1.30
2022-10-23T02:50:47.188Z,1.40
2022-10-23T02:53:26.700Z,0.83
2022-10-23T02:56:27.283Z,2.10
2022-10-23T02:59:16.402Z,1.63
2022-10-23T03:01:53.411Z,1.27
2022-10-23T03:04:26.170Z,0.93
2022-10-23T03:06:53.767Z,1.20
2022-10-23T03:09:21.164Z,1.10
2022-10-23T03:11:48.236Z,2.00
2022-10-23T03:14:15.399Z,0.80
2022-10-23T03:16:42.505Z,1.27
2022-10-23T03:21:41.185Z,1.30
2022-10-23T03:24:09.121Z,1.10
2022-10-23T03:26:42.663Z,1.80
2022-10-23T03:29:10.328Z,1.23
2022-10-23T03:31:43.050Z,1.37
2022-10-23T03:34:11.695Z,1.10
2022-10-23T03:36:41.190Z,1.10
2022-10-23T03:39:09.749Z,1.03
2022-10-23T03:41:37.058Z,1.20
2022-10-23T03:46:31.621Z,1.50
2022-10-23T03:48:59.540Z,0.77
2022-10-23T03:51:27.468Z,1.10
2022-10-23T03:53:54.503Z,1.30
2022-10-23T03:56:22.232Z,1.77
2022-10-23T03:58:49.427Z,0.87
2022-10-23T04:01:16.624Z,1.50
2022-10-23T04:03:45.429Z,1.53
2022-10-23T04:06:12.477Z,0.90
2022-10-23T04:08:39.764Z,1.10
2022-10-23T04:11:13.332Z,0.80
2022-10-23T04:13:45.353Z,1.70
2022-10-23T04:16:12.483Z,1.20
2022-10-23T04:18:41.933Z,1.00
2022-10-23T04:21:11.914Z,2.07
2022-10-23T04:23:39.348Z,1.30
2022-10-23T04:26:12.457Z,1.00
2022-10-23T04:28:40.088Z,1.30
2022-10-23T04:31:07.240Z,1.67
2022-10-23T04:33:34.244Z,1.37
2022-10-23T04:36:01.361Z,1.13
2022-10-23T04:38:28.436Z,0.93
2022-10-23T04:40:55.503Z,1.67
2022-10-23T04:43:23.161Z,1.17
2022-10-23T04:45:50.452Z,1.20
2022-10-23T04:48:17.656Z,1.37
2022-10-23T04:51:05.962Z,1.40
2022-10-23T04:53:51.695Z,2.40
2022-10-23T04:56:37.378Z,1.10
2022-10-23T04:59:08.919Z,1.40
2022-10-23T05:01:37.568Z,0.83
2022-10-23T05:04:07.201Z,1.80
2022-10-23T05:06:42.733Z,0.97
2022-10-23T05:09:14.457Z,1.57
2022-10-23T05:12:06.952Z,1.00
2022-10-23T05:14:34.172Z,1.00
2022-10-23T05:17:14.524Z,1.70
2022-10-23T05:19:50.725Z,1.00
2022-10-23T05:22:20.218Z,0.97
2022-10-23T05:24:53.385Z,1.60
2022-10-23T05:27:24.969Z,0.73
2022-10-23T05:29:54.173Z,1.17
2022-10-23T05:32:27.885Z,1.20
2022-10-23T05:34:55.753Z,1.37
2022-10-23T05:37:28.118Z,1.00
2022-10-23T05:40:06.581Z,1.07
2022-10-23T05:42:37.217Z,1.30
2022-10-23T05:45:07.718Z,1.10
2022-10-23T05:48:16.767Z,1.20
2022-10-23T05:51:22.525Z,0.93
2022-10-23T05:54:03.340Z,1.23
2022-10-23T05:56:41.657Z,1.53
2022-10-23T05:59:31.849Z,0.97
2022-10-23T06:02:18.797Z,0.87
2022-10-23T06:04:53.777Z,1.33
2022-10-23T06:07:49.385Z,1.43
2022-10-23T06:10:18.172Z,1.60
2022-10-23T06:12:47.589Z,1.53
2022-10-23T06:15:17.281Z,1.13
2022-10-23T06:18:02.165Z,1.50
2022-10-23T06:20:31.125Z,1.70
2022-10-23T06:23:08.235Z,1.13
2022-10-23T06:25:56.911Z,1.30
2022-10-23T06:28:46.999Z,1.03
2022-10-23T06:31:19.129Z,1.40
2022-10-23T06:33:46.803Z,0.83
2022-10-23T06:36:14.040Z,1.30
2022-10-23T06:38:42.842Z,1.07
2022-10-23T06:41:22.482Z,2.30
2022-10-23T06:43:54.916Z,1.73
2022-10-23T06:46:29.974Z,1.90
2022-10-23T06:49:08.855Z,1.80
2022-10-23T06:51:44.391Z,1.87
2022-10-23T06:54:13.653Z,1.60
2022-10-23T06:56:59.232Z,1.60
2022-10-23T06:59:42.389Z,1.60
2022-10-23T07:02:11.019Z,1.60
2022-10-23T07:04:40.399Z,2.37
2022-10-23T07:07:13.468Z,1.23
2022-10-23T07:09:45.954Z,1.53
2022-10-23T07:12:23.700Z,1.13
2022-10-23T07:15:00.303Z,2.10
2022-10-23T07:17:29.702Z,1.93
2022-10-23T07:19:57.277Z,1.67
2022-10-23T07:22:25.013Z,1.60
2022-10-23T07:25:04.960Z,1.53
2022-10-23T07:27:38.578Z,1.57
2022-10-23T07:30:08.782Z,2.10
2022-10-23T07:32:44.600Z,2.53
2022-10-23T07:35:26.628Z,1.50
2022-10-23T07:38:14.070Z,2.17
2022-10-23T07:40:47.683Z,1.47
2022-10-23T07:43:21.137Z,2.50
2022-10-23T07:45:49.784Z,4.90
2022-10-23T07:48:24.021Z,5.47
2022-10-23T07:51:03.201Z,2.57
2022-10-23T07:53:31.269Z,3.97
2022-10-23T07:56:24.933Z,3.80
2022-10-23T07:59:13.772Z,1.73
2022-10-23T08:01:44.093Z,2.43
2022-10-23T08:04:11.541Z,2.70
2022-10-23T08:06:47.141Z,1.60
2022-10-23T08:09:14.247Z,2.20
2022-10-23T08:11:43.371Z,2.57
2022-10-23T08:14:14.948Z,2.40
2022-10-23T08:16:43.674Z,3.50
2022-10-23T08:19:16.789Z,2.07
2022-10-23T08:21:45.640Z,3.10
2022-10-23T08:24:14.035Z,3.90
2022-10-23T08:26:43.559Z,3.00
2022-10-23T08:29:12.208Z,2.30
2022-10-23T08:31:39.965Z,3.57
2022-10-23T08:34:25.236Z,3.37
2022-10-23T08:36:53.885Z,4.13
2022-10-23T08:39:21.085Z,5.67
2022-10-23T08:42:06.811Z,3.03
2022-10-23T08:44:51.887Z,4.60
2022-10-23T08:47:34.309Z,3.60
2022-10-23T08:50:32.275Z,3.07
2022-10-23T08:53:15.816Z,4.20
2022-10-23T08:55:52.333Z,3.70
2022-10-23T08:58:49.860Z,3.43
2022-10-23T09:01:58.673Z,4.30
2022-10-23T09:04:26.191Z,7.03
2022-10-23T09:08:04.624Z,4.60
2022-10-23T09:10:42.683Z,3.83
2022-10-23T09:13:44.796Z,3.50
2022-10-23T09:16:40.295Z,3.60
2022-10-23T09:19:26.399Z,4.00
2022-10-23T09:21:55.793Z,3.40
2022-10-23T09:24:26.645Z,3.67
2022-10-23T09:26:54.930Z,3.30
2022-10-23T09:29:29.431Z,3.37
2022-10-23T09:32:00.299Z,4.60
2022-10-23T09:34:30.799Z,3.77
2022-10-23T09:37:03.623Z,3.50
2022-10-23T09:39:34.493Z,3.37
2022-10-23T09:42:20.550Z,4.43
2022-10-23T09:44:50.949Z,4.20
2022-10-23T09:47:25.156Z,5.03
2022-10-23T09:49:55.639Z,3.77
2022-10-23T09:52:39.755Z,3.33
2022-10-23T09:55:24.921Z,3.80
2022-10-23T09:57:54.022Z,3.00
2022-10-23T10:00:27.750Z,4.17
2022-10-23T10:03:05.901Z,2.87
2022-10-23T10:05:42.214Z,4.17
2022-10-23T10:08:44.311Z,4.80
2022-10-23T10:11:54.139Z,3.40
2022-10-23T10:14:53.784Z,3.30
2022-10-23T10:17:43.439Z,4.40
2022-10-23T10:20:25.525Z,4.47
2022-10-23T10:23:07.714Z,3.83
2022-10-23T10:25:52.366Z,3.07
2022-10-23T10:29:00.017Z,4.37
2022-10-23T10:31:45.717Z,3.93
2022-10-23T10:35:14.124Z,3.47
2022-10-23T10:37:51.425Z,2.87
2022-10-23T10:40:51.578Z,2.57
2022-10-23T10:43:52.368Z,2.97
2022-10-23T10:46:51.210Z,3.80
2022-10-23T10:49:38.310Z,2.27
2022-10-23T10:52:29.885Z,2.90
2022-10-23T10:55:15.096Z,3.57
2022-10-23T10:58:18.574Z,3.00
2022-10-23T11:00:52.604Z,2.43
2022-10-23T11:03:39.140Z,2.40
2022-10-23T11:06:16.830Z,2.43
2022-10-23T11:08:57.408Z,1.43
2022-10-23T11:11:42.572Z,1.60
2022-10-23T11:14:36.131Z,1.40
2022-10-23T11:17:24.485Z,1.80
2022-10-23T11:20:31.232Z,1.10
2022-10-23T11:23:48.173Z,1.77
2022-10-23T11:26:18.812Z,2.43
2022-10-23T11:29:29.716Z,2.80
2022-10-23T11:32:49.718Z,2.30
2022-10-23T11:35:41.859Z,1.40
2022-10-23T11:38:38.992Z,1.00
2022-10-23T11:41:34.121Z,1.10
2022-10-23T11:44:04.589Z,1.30
2022-10-23T11:46:39.262Z,1.20
2022-10-23T11:49:21.313Z,1.67
2022-10-23T11:52:00.144Z,1.30
2022-10-23T11:54:27.537Z,1.40
2022-10-23T11:57:15.648Z,1.30
2022-10-23T11:59:45.632Z,1.30
2022-10-23T12:02:38.636Z,1.60
2022-10-23T12:05:30.909Z,1.63
2022-10-23T12:08:01.417Z,1.20
2022-10-23T12:10:36.292Z,1.00
2022-10-23T12:13:26.109Z,1.43
2022-10-23T12:15:58.429Z,1.20
2022-10-23T12:18:28.470Z,1.40
2022-10-23T12:20:58.531Z,1.20
2022-10-23T12:23:54.315Z,1.60
2022-10-23T12:26:39.732Z,1.03
2022-10-23T12:29:53.129Z,2.20
2022-10-23T12:33:00.650Z,1.13
2022-10-23T12:36:04.426Z,1.40
2022-10-23T12:38:34.114Z,1.47
2022-10-23T12:41:16.952Z,1.30
2022-10-23T12:43:56.001Z,1.10
2022-10-23T12:46:36.567Z,1.37
2022-10-23T12:49:26.511Z,1.37
2022-10-23T12:52:06.183Z,0.80
2022-10-23T12:54:39.283Z,1.07
2022-10-23T12:57:26.753Z,2.10
2022-10-23T13:00:04.620Z,1.33
2022-10-23T13:02:33.064Z,2.40
2022-10-23T13:05:06.689Z,3.83
2022-10-23T13:07:42.688Z,2.80
2022-10-23T13:10:22.861Z,3.00
2022-10-23T13:13:06.832Z,2.20
2022-10-23T13:15:43.407Z,1.70
2022-10-23T13:18:14.568Z,1.60
2022-10-23T13:20:58.838Z,1.30
2022-10-23T13:23:36.317Z,1.43
2022-10-23T13:26:20.530Z,1.67
2022-10-23T13:28:47.933Z,2.70
2022-10-23T13:31:14.953Z,1.87
2022-10-23T13:33:59.709Z,1.70
2022-10-23T13:36:30.213Z,1.90
2022-10-23T13:39:02.527Z,1.33
2022-10-23T13:41:39.392Z,1.60
2022-10-23T13:44:07.072Z,2.00
2022-10-23T13:46:34.153Z,2.20
2022-10-23T13:49:01.147Z,1.30
2022-10-23T13:51:32.443Z,3.00
2022-10-23T13:53:59.544Z,2.00
2022-10-23T13:56:28.245Z,1.47
2022-10-23T13:58:55.675Z,1.33
2022-10-23T14:01:26.810Z,2.40
2022-10-23T14:03:56.296Z,2.13
2022-10-23T14:06:23.777Z,1.47
2022-10-23T14:08:51.207Z,2.10
2022-10-23T14:11:20.939Z,1.67
2022-10-23T14:13:49.185Z,1.77
2022-10-23T14:16:19.880Z,1.90
2022-10-23T14:18:47.558Z,2.00
2022-10-23T14:21:20.226Z,1.90
2022-10-23T14:23:49.021Z,1.83
2022-10-23T14:26:22.707Z,2.30
2022-10-23T14:28:54.320Z,1.90
2022-10-23T14:31:22.169Z,2.30
2022-10-23T14:33:56.978Z,2.60
2022-10-23T14:36:26.459Z,1.77
2022-10-23T14:38:59.337Z,1.83
2022-10-23T14:41:27.089Z,2.10
2022-10-23T14:43:54.919Z,1.77
2022-10-23T14:46:24.704Z,1.90
2022-10-23T14:48:54.941Z,2.30
2022-10-23T14:51:32.196Z,2.03
2022-10-23T14:54:02.765Z,1.90
2022-10-23T14:56:33.239Z,1.80
2022-10-23T14:59:04.328Z,1.53
2022-10-23T15:01:34.255Z,1.60
2022-10-23T15:04:01.697Z,2.10
2022-10-23T15:06:28.836Z,2.10
2022-10-23T15:08:56.366Z,2.17
2022-10-23T15:11:25.132Z,2.00
2022-10-23T15:13:54.681Z,2.10
2022-10-23T15:16:23.651Z,2.33
2022-10-23T15:18:51.277Z,2.27
2022-10-23T15:21:19.161Z,2.10
2022-10-23T15:23:47.241Z,1.60
2022-10-23T15:26:21.699Z,2.17
2022-10-23T15:28:58.986Z,3.50
2022-10-23T15:31:37.554Z,2.27
2022-10-23T15:34:06.231Z,3.90
2022-10-23T15:36:34.348Z,4.90
2022-10-23T15:39:02.483Z,5.10
2022-10-23T15:41:34.813Z,3.73
2022-10-23T15:44:04.460Z,3.53
2022-10-23T15:46:32.341Z,3.10
2022-10-23T15:48:59.500Z,2.80
2022-10-23T15:51:27.209Z,3.03
2022-10-23T15:53:54.636Z,2.40
2022-10-23T15:56:21.675Z,2.63
2022-10-23T15:58:48.749Z,2.03
2022-10-23T16:01:15.896Z,2.30
2022-10-23T16:03:43.216Z,2.70
2022-10-23T16:06:15.570Z,2.47
2022-10-23T16:08:45.838Z,2.70
2022-10-23T16:11:22.493Z,3.20
2022-10-23T16:13:49.982Z,2.00
2022-10-23T16:16:18.169Z,2.20
2022-10-23T16:18:45.797Z,2.53
2022-10-23T16:21:23.656Z,2.10
2022-10-23T16:23:52.790Z,3.20
2022-10-23T16:26:21.015Z,2.70
2022-10-23T16:28:52.027Z,3.13
2022-10-23T16:31:21.490Z,2.77
2022-10-23T16:33:49.355Z,3.57
2022-10-23T16:36:18.500Z,4.83
2022-10-23T16:39:06.192Z,3.50
2022-10-23T16:41:51.807Z,3.40
2022-10-23T16:44:18.921Z,4.40
2022-10-23T16:46:56.238Z,4.13
2022-10-23T16:49:23.252Z,4.40
2022-10-23T16:51:50.302Z,3.17
2022-10-23T16:54:17.945Z,4.93
2022-10-23T16:56:45.361Z,3.37
2022-10-23T16:59:12.505Z,4.30
2022-10-23T17:01:39.698Z,3.33
2022-10-23T17:04:08.512Z,3.30
2022-10-23T17:06:36.909Z,4.57
2022-10-23T17:09:05.774Z,2.43
2022-10-23T17:11:37.107Z,3.10
2022-10-23T17:14:12.516Z,3.40
2022-10-23T17:16:49.983Z,3.00
2022-10-23T17:19:43.379Z,3.30
2022-10-23T17:22:12.648Z,2.57
2022-10-23T17:24:41.718Z,4.00
2022-10-23T17:27:09.085Z,4.63
2022-10-23T17:29:36.656Z,2.73
2022-10-23T17:32:04.088Z,2.83
2022-10-23T17:34:31.192Z,3.30
2022-10-23T17:36:58.238Z,3.00
2022-10-23T17:39:28.816Z,2.27
2022-10-23T17:41:57.348Z,3.90
2022-10-23T17:44:24.658Z,2.83
2022-10-23T17:46:54.781Z,2.70
2022-10-23T17:49:24.380Z,3.50
2022-10-23T17:51:57.872Z,2.67
2022-10-23T17:54:27.578Z,2.87
2022-10-23T17:56:55.077Z,2.60
2022-10-23T17:59:22.318Z,2.27
2022-10-23T18:01:50.247Z,3.60
2022-10-23T18:04:19.733Z,2.47
2022-10-23T18:06:52.640Z,2.83
2022-10-23T18:09:22.181Z,2.23
2022-10-23T18:11:50.801Z,2.60
2022-10-23T18:14:20.528Z,4.40
2022-10-23T18:16:48.643Z,4.47
2022-10-23T18:19:18.527Z,3.50
2022-10-23T18:21:47.064Z,4.50
2022-10-23T18:24:14.994Z,3.50
2022-10-23T18:26:43.063Z,4.40
2022-10-23T18:29:12.783Z,3.20
2022-10-23T18:31:40.513Z,3.80
2022-10-23T18:34:23.629Z,4.13
2022-10-23T18:36:53.666Z,3.90
2022-10-23T18:39:24.767Z,2.23
2022-10-23T18:41:56.756Z,3.10
2022-10-23T18:44:27.367Z,3.67
2022-10-23T18:46:57.224Z,2.50
2022-10-23T18:49:25.069Z,2.87
2022-10-23T18:51:52.235Z,2.43
2022-10-23T18:54:21.650Z,2.43
2022-10-23T18:56:49.124Z,2.97
2022-10-23T18:59:20.259Z,3.70
2022-10-23T19:01:48.740Z,2.30
2022-10-23T19:04:17.997Z,2.43
2022-10-23T19:06:47.352Z,2.60
2022-10-23T19:09:15.817Z,1.83
2022-10-23T19:11:44.198Z,2.57
2022-10-23T19:14:11.682Z,2.47
2022-10-23T19:17:09.516Z,2.50
2022-10-23T19:19:48.199Z,2.10
2022-10-23T19:22:16.861Z,2.40
2022-10-23T19:24:51.266Z,2.30
2022-10-23T19:27:19.826Z,2.90
2022-10-23T19:29:50.458Z,2.50
2022-10-23T19:32:17.571Z,3.57
2022-10-23T19:34:45.446Z,2.10
2022-10-23T19:39:44.466Z,3.33
2022-10-23T19:42:12.329Z,2.83
2022-10-23T19:44:39.396Z,2.30
2022-10-23T19:47:06.465Z,2.10
2022-10-23T19:49:33.567Z,2.20
2022-10-23T19:52:00.657Z,2.07
2022-10-23T19:54:27.843Z,1.83
2022-10-23T19:56:56.252Z,1.53
2022-10-23T19:59:23.725Z,2.03
2022-10-23T20:01:50.881Z,2.30
2022-10-23T20:04:19.161Z,2.40
2022-10-23T20:06:47.225Z,2.20
2022-10-23T20:09:14.328Z,1.70
2022-10-23T20:11:41.958Z,1.97
2022-10-23T20:14:09.225Z,2.00
2022-10-23T20:16:38.975Z,2.73
2022-10-23T20:19:09.444Z,1.73
2022-10-23T20:21:39.366Z,2.10
2022-10-23T20:24:08.046Z,2.20
2022-10-23T20:26:35.315Z,1.57
2022-10-23T20:29:02.413Z,1.90
2022-10-23T20:31:29.575Z,1.77
2022-10-23T20:33:56.806Z,2.37
2022-10-23T20:36:36.883Z,2.30
2022-10-23T20:39:12.033Z,2.40
2022-10-23T20:41:41.848Z,2.00
2022-10-23T20:44:14.088Z,1.50
2022-10-23T20:46:42.348Z,2.10
2022-10-23T20:49:11.222Z,2.07
2022-10-23T20:51:38.597Z,2.83
2022-10-23T20:54:06.358Z,2.30
2022-10-23T20:56:37.468Z,2.60
2022-10-23T20:59:13.473Z,2.63
2022-10-23T21:01:44.264Z,2.20
2022-10-23T21:04:14.641Z,1.87
2022-10-23T21:06:57.815Z,3.00
2022-10-23T21:09:31.818Z,2.27
2022-10-23T21:11:58.848Z,1.63
2022-10-23T21:14:25.965Z,1.87
2022-10-23T21:16:53.059Z,1.73
2022-10-23T21:19:20.145Z,2.23
2022-10-23T21:21:47.170Z,2.17
2022-10-23T21:24:16.626Z,1.97
2022-10-23T21:26:45.230Z,2.57
2022-10-23T21:29:18.393Z,2.57
2022-10-23T21:31:55.957Z,2.20
2022-10-23T21:34:25.456Z,2.20
2022-10-23T21:39:40.156Z,2.73
2022-10-23T21:42:07.432Z,2.43
2022-10-23T21:44:34.601Z,2.40
2022-10-23T21:47:01.646Z,1.77
2022-10-23T21:49:28.709Z,1.97
2022-10-23T21:51:55.715Z,2.00
2022-10-23T21:54:23.121Z,2.20
2022-10-23T21:56:55.944Z,2.27
2022-10-23T21:59:29.113Z,2.60
2022-10-23T22:01:59.502Z,1.93
2022-10-23T22:04:26.727Z,2.17
2022-10-23T22:06:53.899Z,2.23
2022-10-23T22:09:22.806Z,2.03
2022-10-23T22:11:53.022Z,2.30
2022-10-23T22:14:20.785Z,3.07
2022-10-23T22:16:48.721Z,1.67
2022-10-23T22:19:17.871Z,2.60
2022-10-23T22:21:45.536Z,2.80
2022-10-23T22:24:13.356Z,3.03
2022-10-23T22:26:45.046Z,2.43
2022-10-23T22:29:19.182Z,2.13
2022-10-23T22:31:49.633Z,2.60
2022-10-23T22:34:48.219Z,2.00
2022-10-23T22:37:14.517Z,2.47
2022-10-23T22:39:41.638Z,1.97
2022-10-23T22:42:09.169Z,2.63
2022-10-23T22:44:36.165Z,2.83
2022-10-23T22:47:03.652Z,2.93
2022-10-23T22:49:30.638Z,2.97
2022-10-23T22:51:57.681Z,2.20
2022-10-23T22:54:24.772Z,2.43
2022-10-23T22:56:51.811Z,1.50
2022-10-23T22:59:18.873Z,2.50
2022-10-23T23:01:48.333Z,2.47
2022-10-23T23:07:11.477Z,2.00
2022-10-23T23:09:44.222Z,1.93
2022-10-23T23:12:14.680Z,1.73
2022-10-23T23:14:43.215Z,2.30
2022-10-23T23:17:11.421Z,2.00
2022-10-23T23:19:39.338Z,2.40
2022-10-23T23:22:06.984Z,2.03
2022-10-23T23:24:34.268Z,1.90
2022-10-23T23:27:01.441Z,1.90
2022-10-23T23:29:29.556Z,1.40
2022-10-23T23:31:56.722Z,1.50
2022-10-23T23:34:23.779Z,2.17
2022-10-23T23:36:50.857Z,1.83
2022-10-23T23:39:17.889Z,2.20
2022-10-23T23:41:44.961Z,2.30
2022-10-23T23:44:11.986Z,2.17
2022-10-23T23:46:39.034Z,1.93
2022-10-23T23:49:06.149Z,2.60
2022-10-23T23:51:33.193Z,2.00
2022-10-23T23:54:00.182Z,1.73
2022-10-23T23:56:28.108Z,2.30
2022-10-23T23:58:55.176Z,1.73
